sensor_id;sensor_type;location;lat;lon;timestamp;P1;durP1;ratioP1;P2;durP2;ratioP2
72941;SDS011;69665;55.822;37.330;2023-07-24T00:00:31;6.78;;;4.05;;
72941;SDS011;69665;55.822;37.330;2023-07-24T00:02:59;11.15;;;4.47;;
72941;SDS011;69665;55.822;37.330;2023-07-24T00:05:24;7.85;;;4.03;;
72941;SDS011;69665;55.822;37.330;2023-07-24T00:07:50;7.03;;;3.78;;
72941;SDS011;69665;55.822;37.330;2023-07-24T00:10:15;9.52;;;3.95;;
72941;SDS011;69665;55.822;37.330;2023-07-24T00:12:41;7.90;;;4.18;;
72941;SDS011;69665;55.822;37.330;2023-07-24T00:15:06;7.82;;;3.80;;
72941;SDS011;69665;55.822;37.330;2023-07-24T00:17:33;8.38;;;4.22;;
72941;SDS011;69665;55.822;37.330;2023-07-24T00:19:58;8.98;;;3.85;;
72941;SDS011;69665;55.822;37.330;2023-07-24T00:22:24;6.60;;;3.63;;
72941;SDS011;69665;55.822;37.330;2023-07-24T00:24:49;8.23;;;4.15;;
72941;SDS011;69665;55.822;37.330;2023-07-24T00:27:15;6.55;;;3.55;;
72941;SDS011;69665;55.822;37.330;2023-07-24T00:29:43;7.35;;;3.53;;
72941;SDS011;69665;55.822;37.330;2023-07-24T00:32:09;8.60;;;3.85;;
72941;SDS011;69665;55.822;37.330;2023-07-24T00:34:34;9.50;;;3.95;;
72941;SDS011;69665;55.822;37.330;2023-07-24T00:37:01;8.20;;;3.90;;
72941;SDS011;69665;55.822;37.330;2023-07-24T00:39:27;8.38;;;3.90;;
72941;SDS011;69665;55.822;37.330;2023-07-24T00:41:56;7.43;;;3.63;;
72941;SDS011;69665;55.822;37.330;2023-07-24T00:44:21;7.32;;;4.07;;
72941;SDS011;69665;55.822;37.330;2023-07-24T00:46:47;7.72;;;3.72;;
72941;SDS011;69665;55.822;37.330;2023-07-24T00:49:12;6.30;;;3.72;;
72941;SDS011;69665;55.822;37.330;2023-07-24T00:51:38;7.90;;;4.10;;
72941;SDS011;69665;55.822;37.330;2023-07-24T00:54:04;7.85;;;3.70;;
72941;SDS011;69665;55.822;37.330;2023-07-24T00:56:31;8.45;;;4.00;;
72941;SDS011;69665;55.822;37.330;2023-07-24T00:58:57;8.65;;;4.45;;
72941;SDS011;69665;55.822;37.330;2023-07-24T01:01:23;8.23;;;3.97;;
72941;SDS011;69665;55.822;37.330;2023-07-24T01:03:49;10.95;;;4.45;;
72941;SDS011;69665;55.822;37.330;2023-07-24T01:06:15;7.18;;;4.03;;
72941;SDS011;69665;55.822;37.330;2023-07-24T01:08:41;7.30;;;4.07;;
72941;SDS011;69665;55.822;37.330;2023-07-24T01:11:16;7.80;;;4.28;;
72941;SDS011;69665;55.822;37.330;2023-07-24T01:13:44;8.75;;;3.83;;
72941;SDS011;69665;55.822;37.330;2023-07-24T01:16:14;7.32;;;3.65;;
72941;SDS011;69665;55.822;37.330;2023-07-24T01:18:43;7.00;;;3.92;;
72941;SDS011;69665;55.822;37.330;2023-07-24T01:21:10;10.13;;;4.50;;
72941;SDS011;69665;55.822;37.330;2023-07-24T01:26:04;7.63;;;3.65;;
72941;SDS011;69665;55.822;37.330;2023-07-24T01:28:30;8.05;;;4.20;;
72941;SDS011;69665;55.822;37.330;2023-07-24T01:30:56;8.65;;;4.05;;
72941;SDS011;69665;55.822;37.330;2023-07-24T01:33:22;9.20;;;4.35;;
72941;SDS011;69665;55.822;37.330;2023-07-24T01:35:49;8.65;;;4.22;;
72941;SDS011;69665;55.822;37.330;2023-07-24T01:38:16;7.32;;;4.00;;
72941;SDS011;69665;55.822;37.330;2023-07-24T01:40:44;7.82;;;4.05;;
72941;SDS011;69665;55.822;37.330;2023-07-24T01:43:10;9.27;;;4.20;;
72941;SDS011;69665;55.822;37.330;2023-07-24T01:45:35;8.07;;;4.22;;
72941;SDS011;69665;55.822;37.330;2023-07-24T01:48:04;8.07;;;4.50;;
72941;SDS011;69665;55.822;37.330;2023-07-24T01:50:30;9.10;;;4.13;;
72941;SDS011;69665;55.822;37.330;2023-07-24T01:52:56;11.18;;;4.68;;
72941;SDS011;69665;55.822;37.330;2023-07-24T01:55:21;9.52;;;4.40;;
72941;SDS011;69665;55.822;37.330;2023-07-24T01:57:47;8.38;;;4.20;;
72941;SDS011;69665;55.822;37.330;2023-07-24T02:00:12;7.55;;;4.45;;
72941;SDS011;69665;55.822;37.330;2023-07-24T02:02:38;7.32;;;3.92;;
72941;SDS011;69665;55.822;37.330;2023-07-24T02:05:04;9.10;;;4.20;;
72941;SDS011;69665;55.822;37.330;2023-07-24T02:07:31;9.40;;;4.43;;
72941;SDS011;69665;55.822;37.330;2023-07-24T02:09:57;9.55;;;3.92;;
72941;SDS011;69665;55.822;37.330;2023-07-24T02:12:22;6.53;;;3.60;;
72941;SDS011;69665;55.822;37.330;2023-07-24T02:14:48;6.18;;;3.25;;
72941;SDS011;69665;55.822;37.330;2023-07-24T02:17:15;8.00;;;3.80;;
72941;SDS011;69665;55.822;37.330;2023-07-24T02:19:41;8.52;;;3.30;;
72941;SDS011;69665;55.822;37.330;2023-07-24T02:22:07;9.95;;;3.85;;
72941;SDS011;69665;55.822;37.330;2023-07-24T02:24:34;5.32;;;2.80;;
72941;SDS011;69665;55.822;37.330;2023-07-24T02:27:00;6.63;;;3.70;;
72941;SDS011;69665;55.822;37.330;2023-07-24T02:29:26;6.95;;;3.13;;
72941;SDS011;69665;55.822;37.330;2023-07-24T02:31:52;5.68;;;2.95;;
72941;SDS011;69665;55.822;37.330;2023-07-24T02:34:18;7.53;;;3.20;;
72941;SDS011;69665;55.822;37.330;2023-07-24T02:36:44;7.15;;;3.10;;
72941;SDS011;69665;55.822;37.330;2023-07-24T02:39:09;7.28;;;2.72;;
72941;SDS011;69665;55.822;37.330;2023-07-24T02:41:35;5.47;;;2.85;;
72941;SDS011;69665;55.822;37.330;2023-07-24T02:44:02;5.25;;;2.72;;
72941;SDS011;69665;55.822;37.330;2023-07-24T02:46:27;5.00;;;2.35;;
72941;SDS011;69665;55.822;37.330;2023-07-24T02:48:54;5.57;;;2.55;;
72941;SDS011;69665;55.822;37.330;2023-07-24T02:51:19;6.40;;;2.83;;
72941;SDS011;69665;55.822;37.330;2023-07-24T02:53:45;6.00;;;2.80;;
72941;SDS011;69665;55.822;37.330;2023-07-24T02:56:10;5.57;;;2.58;;
72941;SDS011;69665;55.822;37.330;2023-07-24T02:58:36;6.30;;;2.40;;
72941;SDS011;69665;55.822;37.330;2023-07-24T03:01:05;5.00;;;2.25;;
72941;SDS011;69665;55.822;37.330;2023-07-24T03:03:32;8.38;;;2.10;;
72941;SDS011;69665;55.822;37.330;2023-07-24T03:05:57;5.00;;;2.30;;
72941;SDS011;69665;55.822;37.330;2023-07-24T03:08:23;6.30;;;2.42;;
72941;SDS011;69665;55.822;37.330;2023-07-24T03:10:49;6.10;;;2.22;;
72941;SDS011;69665;55.822;37.330;2023-07-24T03:13:14;5.22;;;2.50;;
72941;SDS011;69665;55.822;37.330;2023-07-24T03:15:40;6.20;;;2.72;;
72941;SDS011;69665;55.822;37.330;2023-07-24T03:18:06;6.50;;;2.30;;
72941;SDS011;69665;55.822;37.330;2023-07-24T03:20:31;7.13;;;2.35;;
72941;SDS011;69665;55.822;37.330;2023-07-24T03:22:57;6.28;;;2.10;;
72941;SDS011;69665;55.822;37.330;2023-07-24T03:25:22;5.22;;;2.17;;
72941;SDS011;69665;55.822;37.330;2023-07-24T03:27:48;5.07;;;2.28;;
72941;SDS011;69665;55.822;37.330;2023-07-24T03:30:13;6.00;;;2.53;;
72941;SDS011;69665;55.822;37.330;2023-07-24T03:32:39;6.88;;;2.58;;
72941;SDS011;69665;55.822;37.330;2023-07-24T03:35:05;5.47;;;2.35;;
72941;SDS011;69665;55.822;37.330;2023-07-24T03:37:31;6.32;;;2.42;;
72941;SDS011;69665;55.822;37.330;2023-07-24T03:39:56;7.13;;;2.40;;
72941;SDS011;69665;55.822;37.330;2023-07-24T03:42:26;4.97;;;2.50;;
72941;SDS011;69665;55.822;37.330;2023-07-24T03:44:52;5.38;;;2.35;;
72941;SDS011;69665;55.822;37.330;2023-07-24T03:47:17;5.18;;;2.53;;
72941;SDS011;69665;55.822;37.330;2023-07-24T03:49:43;5.68;;;2.30;;
72941;SDS011;69665;55.822;37.330;2023-07-24T03:52:09;4.18;;;2.00;;
72941;SDS011;69665;55.822;37.330;2023-07-24T03:54:34;5.85;;;2.20;;
72941;SDS011;69665;55.822;37.330;2023-07-24T03:56:59;5.40;;;1.90;;
72941;SDS011;69665;55.822;37.330;2023-07-24T03:59:25;4.97;;;2.40;;
72941;SDS011;69665;55.822;37.330;2023-07-24T04:01:50;5.13;;;2.40;;
72941;SDS011;69665;55.822;37.330;2023-07-24T04:04:16;5.97;;;2.45;;
72941;SDS011;69665;55.822;37.330;2023-07-24T04:06:41;4.90;;;2.50;;
72941;SDS011;69665;55.822;37.330;2023-07-24T04:09:07;4.75;;;2.80;;
72941;SDS011;69665;55.822;37.330;2023-07-24T04:11:33;5.68;;;2.60;;
72941;SDS011;69665;55.822;37.330;2023-07-24T04:13:58;5.75;;;2.47;;
72941;SDS011;69665;55.822;37.330;2023-07-24T04:16:24;6.50;;;2.38;;
72941;SDS011;69665;55.822;37.330;2023-07-24T04:18:49;6.53;;;2.60;;
72941;SDS011;69665;55.822;37.330;2023-07-24T04:21:15;6.03;;;3.00;;
72941;SDS011;69665;55.822;37.330;2023-07-24T04:23:40;4.20;;;2.00;;
72941;SDS011;69665;55.822;37.330;2023-07-24T04:26:06;5.18;;;2.22;;
72941;SDS011;69665;55.822;37.330;2023-07-24T04:28:31;4.05;;;2.17;;
72941;SDS011;69665;55.822;37.330;2023-07-24T04:31:00;5.03;;;2.20;;
72941;SDS011;69665;55.822;37.330;2023-07-24T04:33:26;5.35;;;2.55;;
72941;SDS011;69665;55.822;37.330;2023-07-24T04:35:54;6.18;;;2.40;;
72941;SDS011;69665;55.822;37.330;2023-07-24T04:38:19;4.63;;;2.10;;
72941;SDS011;69665;55.822;37.330;2023-07-24T04:40:45;4.70;;;2.03;;
72941;SDS011;69665;55.822;37.330;2023-07-24T04:43:11;5.43;;;1.95;;
72941;SDS011;69665;55.822;37.330;2023-07-24T04:45:36;4.78;;;1.77;;
72941;SDS011;69665;55.822;37.330;2023-07-24T04:48:02;5.30;;;1.80;;
72941;SDS011;69665;55.822;37.330;2023-07-24T04:50:27;3.85;;;1.65;;
72941;SDS011;69665;55.822;37.330;2023-07-24T04:52:53;4.45;;;1.92;;
72941;SDS011;69665;55.822;37.330;2023-07-24T04:55:18;6.32;;;1.80;;
72941;SDS011;69665;55.822;37.330;2023-07-24T04:57:44;5.28;;;1.90;;
72941;SDS011;69665;55.822;37.330;2023-07-24T05:00:09;4.60;;;1.85;;
72941;SDS011;69665;55.822;37.330;2023-07-24T05:02:35;5.38;;;1.60;;
72941;SDS011;69665;55.822;37.330;2023-07-24T05:05:01;3.90;;;1.67;;
72941;SDS011;69665;55.822;37.330;2023-07-24T05:07:27;5.55;;;1.58;;
72941;SDS011;69665;55.822;37.330;2023-07-24T05:09:52;3.92;;;1.73;;
72941;SDS011;69665;55.822;37.330;2023-07-24T05:12:18;3.85;;;1.63;;
72941;SDS011;69665;55.822;37.330;2023-07-24T05:14:43;3.88;;;1.52;;
72941;SDS011;69665;55.822;37.330;2023-07-24T05:17:09;3.90;;;1.88;;
72941;SDS011;69665;55.822;37.330;2023-07-24T05:19:34;3.60;;;1.67;;
72941;SDS011;69665;55.822;37.330;2023-07-24T05:22:00;3.40;;;1.67;;
72941;SDS011;69665;55.822;37.330;2023-07-24T05:24:25;4.10;;;2.00;;
72941;SDS011;69665;55.822;37.330;2023-07-24T05:26:51;4.75;;;1.75;;
72941;SDS011;69665;55.822;37.330;2023-07-24T05:29:16;3.70;;;1.67;;
72941;SDS011;69665;55.822;37.330;2023-07-24T05:31:42;4.03;;;1.73;;
72941;SDS011;69665;55.822;37.330;2023-07-24T05:34:08;4.90;;;1.85;;
72941;SDS011;69665;55.822;37.330;2023-07-24T05:36:33;5.20;;;2.10;;
72941;SDS011;69665;55.822;37.330;2023-07-24T05:38:59;5.60;;;2.03;;
72941;SDS011;69665;55.822;37.330;2023-07-24T05:41:24;5.25;;;1.70;;
72941;SDS011;69665;55.822;37.330;2023-07-24T05:43:50;5.90;;;1.90;;
72941;SDS011;69665;55.822;37.330;2023-07-24T05:46:15;5.60;;;2.00;;
72941;SDS011;69665;55.822;37.330;2023-07-24T05:48:41;4.60;;;1.80;;
72941;SDS011;69665;55.822;37.330;2023-07-24T05:51:07;4.22;;;1.63;;
72941;SDS011;69665;55.822;37.330;2023-07-24T05:53:32;3.90;;;1.60;;
72941;SDS011;69665;55.822;37.330;2023-07-24T05:55:58;5.60;;;1.90;;
72941;SDS011;69665;55.822;37.330;2023-07-24T05:58:25;4.65;;;1.80;;
72941;SDS011;69665;55.822;37.330;2023-07-24T06:00:51;4.28;;;1.60;;
72941;SDS011;69665;55.822;37.330;2023-07-24T06:03:16;4.55;;;1.77;;
72941;SDS011;69665;55.822;37.330;2023-07-24T06:05:42;5.10;;;1.70;;
72941;SDS011;69665;55.822;37.330;2023-07-24T06:08:07;4.95;;;1.88;;
72941;SDS011;69665;55.822;37.330;2023-07-24T06:10:34;3.72;;;1.70;;
72941;SDS011;69665;55.822;37.330;2023-07-24T06:12:59;4.80;;;1.65;;
72941;SDS011;69665;55.822;37.330;2023-07-24T06:15:25;5.20;;;1.85;;
72941;SDS011;69665;55.822;37.330;2023-07-24T06:17:50;3.65;;;1.60;;
72941;SDS011;69665;55.822;37.330;2023-07-24T06:20:16;4.40;;;1.85;;
72941;SDS011;69665;55.822;37.330;2023-07-24T06:22:41;4.28;;;1.60;;
72941;SDS011;69665;55.822;37.330;2023-07-24T06:25:07;7.10;;;1.95;;
72941;SDS011;69665;55.822;37.330;2023-07-24T06:27:32;8.07;;;1.90;;
72941;SDS011;69665;55.822;37.330;2023-07-24T06:29:58;4.57;;;1.70;;
72941;SDS011;69665;55.822;37.330;2023-07-24T06:32:23;6.13;;;2.00;;
72941;SDS011;69665;55.822;37.330;2023-07-24T06:34:49;4.78;;;1.90;;
72941;SDS011;69665;55.822;37.330;2023-07-24T06:37:15;5.03;;;1.98;;
72941;SDS011;69665;55.822;37.330;2023-07-24T06:39:43;4.03;;;1.65;;
72941;SDS011;69665;55.822;37.330;2023-07-24T06:42:09;2.83;;;1.20;;
72941;SDS011;69665;55.822;37.330;2023-07-24T06:44:34;4.57;;;1.77;;
72941;SDS011;69665;55.822;37.330;2023-07-24T06:47:02;6.35;;;1.67;;
72941;SDS011;69665;55.822;37.330;2023-07-24T06:49:28;4.57;;;1.92;;
72941;SDS011;69665;55.822;37.330;2023-07-24T06:51:53;4.70;;;2.10;;
72941;SDS011;69665;55.822;37.330;2023-07-24T06:54:19;2.95;;;1.23;;
72941;SDS011;69665;55.822;37.330;2023-07-24T06:56:44;4.15;;;1.50;;
72941;SDS011;69665;55.822;37.330;2023-07-24T06:59:10;3.95;;;1.60;;
72941;SDS011;69665;55.822;37.330;2023-07-24T07:01:35;4.15;;;1.70;;
72941;SDS011;69665;55.822;37.330;2023-07-24T07:04:01;4.13;;;1.50;;
72941;SDS011;69665;55.822;37.330;2023-07-24T07:06:26;4.20;;;1.50;;
72941;SDS011;69665;55.822;37.330;2023-07-24T07:08:52;3.40;;;1.27;;
72941;SDS011;69665;55.822;37.330;2023-07-24T07:11:17;4.88;;;1.30;;
72941;SDS011;69665;55.822;37.330;2023-07-24T07:13:43;3.67;;;1.38;;
72941;SDS011;69665;55.822;37.330;2023-07-24T07:16:09;4.75;;;1.30;;
72941;SDS011;69665;55.822;37.330;2023-07-24T07:18:34;4.53;;;1.98;;
72941;SDS011;69665;55.822;37.330;2023-07-24T07:20:59;3.70;;;1.48;;
72941;SDS011;69665;55.822;37.330;2023-07-24T07:23:25;4.53;;;1.45;;
72941;SDS011;69665;55.822;37.330;2023-07-24T07:25:51;4.68;;;1.50;;
72941;SDS011;69665;55.822;37.330;2023-07-24T07:28:16;4.35;;;1.40;;
72941;SDS011;69665;55.822;37.330;2023-07-24T07:30:42;3.45;;;1.33;;
72941;SDS011;69665;55.822;37.330;2023-07-24T07:33:08;4.65;;;1.42;;
72941;SDS011;69665;55.822;37.330;2023-07-24T07:35:34;5.95;;;1.80;;
72941;SDS011;69665;55.822;37.330;2023-07-24T07:38:00;4.10;;;1.40;;
72941;SDS011;69665;55.822;37.330;2023-07-24T07:40:26;5.55;;;1.50;;
72941;SDS011;69665;55.822;37.330;2023-07-24T07:42:52;3.83;;;1.38;;
72941;SDS011;69665;55.822;37.330;2023-07-24T07:45:18;3.55;;;1.38;;
72941;SDS011;69665;55.822;37.330;2023-07-24T07:47:44;3.92;;;1.35;;
72941;SDS011;69665;55.822;37.330;2023-07-24T07:50:10;4.25;;;1.60;;
72941;SDS011;69665;55.822;37.330;2023-07-24T07:52:35;4.03;;;1.50;;
72941;SDS011;69665;55.822;37.330;2023-07-24T07:55:01;3.55;;;1.55;;
72941;SDS011;69665;55.822;37.330;2023-07-24T07:57:27;5.63;;;2.00;;
72941;SDS011;69665;55.822;37.330;2023-07-24T07:59:52;5.47;;;1.90;;
72941;SDS011;69665;55.822;37.330;2023-07-24T08:02:18;4.95;;;1.77;;
72941;SDS011;69665;55.822;37.330;2023-07-24T08:04:43;4.50;;;1.83;;
72941;SDS011;69665;55.822;37.330;2023-07-24T08:07:09;4.60;;;1.85;;
72941;SDS011;69665;55.822;37.330;2023-07-24T08:09:34;5.28;;;2.03;;
72941;SDS011;69665;55.822;37.330;2023-07-24T08:12:01;4.45;;;1.73;;
72941;SDS011;69665;55.822;37.330;2023-07-24T08:14:26;5.47;;;2.30;;
72941;SDS011;69665;55.822;37.330;2023-07-24T08:16:52;9.07;;;2.85;;
72941;SDS011;69665;55.822;37.330;2023-07-24T08:19:18;5.82;;;2.30;;
72941;SDS011;69665;55.822;37.330;2023-07-24T08:21:44;4.60;;;2.38;;
72941;SDS011;69665;55.822;37.330;2023-07-24T08:24:10;6.22;;;2.38;;
72941;SDS011;69665;55.822;37.330;2023-07-24T08:26:35;6.60;;;2.47;;
72941;SDS011;69665;55.822;37.330;2023-07-24T08:29:01;7.32;;;2.03;;
72941;SDS011;69665;55.822;37.330;2023-07-24T08:31:26;6.13;;;2.15;;
72941;SDS011;69665;55.822;37.330;2023-07-24T08:33:52;5.53;;;1.80;;
72941;SDS011;69665;55.822;37.330;2023-07-24T08:36:18;5.43;;;2.15;;
72941;SDS011;69665;55.822;37.330;2023-07-24T08:38:43;4.93;;;1.90;;
72941;SDS011;69665;55.822;37.330;2023-07-24T08:41:13;4.25;;;1.95;;
72941;SDS011;69665;55.822;37.330;2023-07-24T08:43:39;5.65;;;2.08;;
72941;SDS011;69665;55.822;37.330;2023-07-24T08:46:05;4.15;;;1.58;;
72941;SDS011;69665;55.822;37.330;2023-07-24T08:48:32;3.97;;;1.88;;
72941;SDS011;69665;55.822;37.330;2023-07-24T08:51:01;4.30;;;1.63;;
72941;SDS011;69665;55.822;37.330;2023-07-24T08:53:27;5.13;;;1.85;;
72941;SDS011;69665;55.822;37.330;2023-07-24T08:55:53;4.57;;;1.67;;
72941;SDS011;69665;55.822;37.330;2023-07-24T08:58:20;4.93;;;1.70;;
72941;SDS011;69665;55.822;37.330;2023-07-24T09:00:45;5.78;;;2.10;;
72941;SDS011;69665;55.822;37.330;2023-07-24T09:03:11;5.60;;;2.00;;
72941;SDS011;69665;55.822;37.330;2023-07-24T09:05:37;5.13;;;1.98;;
72941;SDS011;69665;55.822;37.330;2023-07-24T09:08:02;5.47;;;2.10;;
72941;SDS011;69665;55.822;37.330;2023-07-24T09:10:28;5.15;;;2.13;;
72941;SDS011;69665;55.822;37.330;2023-07-24T09:12:54;5.10;;;2.10;;
72941;SDS011;69665;55.822;37.330;2023-07-24T09:15:19;7.53;;;2.95;;
72941;SDS011;69665;55.822;37.330;2023-07-24T09:17:49;6.53;;;2.63;;
72941;SDS011;69665;55.822;37.330;2023-07-24T09:20:14;6.38;;;3.00;;
72941;SDS011;69665;55.822;37.330;2023-07-24T09:22:47;6.38;;;3.35;;
72941;SDS011;69665;55.822;37.330;2023-07-24T09:25:13;5.85;;;2.85;;
72941;SDS011;69665;55.822;37.330;2023-07-24T09:27:38;6.13;;;2.92;;
72941;SDS011;69665;55.822;37.330;2023-07-24T09:30:11;6.78;;;2.83;;
72941;SDS011;69665;55.822;37.330;2023-07-24T09:32:37;6.00;;;2.55;;
72941;SDS011;69665;55.822;37.330;2023-07-24T09:35:03;6.57;;;2.97;;
72941;SDS011;69665;55.822;37.330;2023-07-24T09:37:35;8.13;;;3.35;;
72941;SDS011;69665;55.822;37.330;2023-07-24T09:40:04;7.18;;;2.58;;
72941;SDS011;69665;55.822;37.330;2023-07-24T09:42:34;7.10;;;2.92;;
72941;SDS011;69665;55.822;37.330;2023-07-24T09:45:03;6.05;;;2.67;;
72941;SDS011;69665;55.822;37.330;2023-07-24T09:47:31;6.25;;;3.40;;
72941;SDS011;69665;55.822;37.330;2023-07-24T09:49:57;5.80;;;2.92;;
72941;SDS011;69665;55.822;37.330;2023-07-24T09:52:24;7.32;;;2.83;;
72941;SDS011;69665;55.822;37.330;2023-07-24T09:57:18;8.48;;;3.08;;
72941;SDS011;69665;55.822;37.330;2023-07-24T09:59:45;8.63;;;3.05;;
72941;SDS011;69665;55.822;37.330;2023-07-24T10:02:11;6.03;;;3.10;;
72941;SDS011;69665;55.822;37.330;2023-07-24T10:04:37;6.90;;;2.47;;
72941;SDS011;69665;55.822;37.330;2023-07-24T10:07:06;8.68;;;2.53;;
72941;SDS011;69665;55.822;37.330;2023-07-24T10:09:31;5.53;;;2.58;;
72941;SDS011;69665;55.822;37.330;2023-07-24T10:11:57;6.07;;;2.92;;
72941;SDS011;69665;55.822;37.330;2023-07-24T10:14:23;6.93;;;3.05;;
72941;SDS011;69665;55.822;37.330;2023-07-24T10:16:49;7.95;;;3.05;;
72941;SDS011;69665;55.822;37.330;2023-07-24T10:19:20;5.30;;;2.67;;
72941;SDS011;69665;55.822;37.330;2023-07-24T10:21:49;7.57;;;2.92;;
72941;SDS011;69665;55.822;37.330;2023-07-24T10:26:41;6.37;;;3.17;;
72941;SDS011;69665;55.822;37.330;2023-07-24T10:29:06;6.78;;;2.53;;
72941;SDS011;69665;55.822;37.330;2023-07-24T10:31:32;7.38;;;2.70;;
72941;SDS011;69665;55.822;37.330;2023-07-24T10:34:04;5.63;;;2.97;;
72941;SDS011;69665;55.822;37.330;2023-07-24T10:36:33;6.82;;;2.90;;
72941;SDS011;69665;55.822;37.330;2023-07-24T10:38:58;6.85;;;3.15;;
72941;SDS011;69665;55.822;37.330;2023-07-24T10:41:33;7.93;;;3.22;;
72941;SDS011;69665;55.822;37.330;2023-07-24T10:43:59;5.30;;;2.80;;
72941;SDS011;69665;55.822;37.330;2023-07-24T10:46:34;6.25;;;3.05;;
72941;SDS011;69665;55.822;37.330;2023-07-24T10:49:00;7.43;;;3.80;;
72941;SDS011;69665;55.822;37.330;2023-07-24T10:51:25;8.32;;;3.20;;
72941;SDS011;69665;55.822;37.330;2023-07-24T10:53:51;8.70;;;3.70;;
72941;SDS011;69665;55.822;37.330;2023-07-24T10:56:18;6.85;;;3.25;;
72941;SDS011;69665;55.822;37.330;2023-07-24T10:58:44;6.70;;;3.35;;
72941;SDS011;69665;55.822;37.330;2023-07-24T11:01:09;6.88;;;3.55;;
72941;SDS011;69665;55.822;37.330;2023-07-24T11:03:37;6.03;;;2.90;;
72941;SDS011;69665;55.822;37.330;2023-07-24T11:06:03;6.47;;;3.35;;
72941;SDS011;69665;55.822;37.330;2023-07-24T11:08:28;6.85;;;3.15;;
72941;SDS011;69665;55.822;37.330;2023-07-24T11:10:55;7.10;;;3.45;;
72941;SDS011;69665;55.822;37.330;2023-07-24T11:13:22;6.57;;;3.15;;
72941;SDS011;69665;55.822;37.330;2023-07-24T11:15:48;6.68;;;3.15;;
72941;SDS011;69665;55.822;37.330;2023-07-24T11:18:14;6.25;;;2.78;;
72941;SDS011;69665;55.822;37.330;2023-07-24T11:23:08;5.82;;;3.17;;
72941;SDS011;69665;55.822;37.330;2023-07-24T11:25:34;7.68;;;2.85;;
72941;SDS011;69665;55.822;37.330;2023-07-24T11:28:00;6.78;;;2.97;;
72941;SDS011;69665;55.822;37.330;2023-07-24T11:30:26;6.47;;;3.08;;
72941;SDS011;69665;55.822;37.330;2023-07-24T11:32:51;6.85;;;3.33;;
72941;SDS011;69665;55.822;37.330;2023-07-24T11:35:17;7.57;;;3.50;;
72941;SDS011;69665;55.822;37.330;2023-07-24T11:37:42;7.80;;;3.70;;
72941;SDS011;69665;55.822;37.330;2023-07-24T11:40:08;6.63;;;2.97;;
72941;SDS011;69665;55.822;37.330;2023-07-24T11:42:39;6.50;;;3.80;;
72941;SDS011;69665;55.822;37.330;2023-07-24T11:45:05;7.07;;;3.50;;
72941;SDS011;69665;55.822;37.330;2023-07-24T11:47:40;7.50;;;3.80;;
72941;SDS011;69665;55.822;37.330;2023-07-24T11:50:09;6.38;;;3.70;;
72941;SDS011;69665;55.822;37.330;2023-07-24T11:52:53;9.43;;;4.53;;
72941;SDS011;69665;55.822;37.330;2023-07-24T11:55:39;7.32;;;3.88;;
72941;SDS011;69665;55.822;37.330;2023-07-24T11:58:04;10.15;;;5.03;;
72941;SDS011;69665;55.822;37.330;2023-07-24T12:00:32;9.70;;;4.50;;
72941;SDS011;69665;55.822;37.330;2023-07-24T12:03:01;8.65;;;4.18;;
72941;SDS011;69665;55.822;37.330;2023-07-24T12:05:26;10.73;;;5.00;;
72941;SDS011;69665;55.822;37.330;2023-07-24T12:07:53;6.95;;;3.70;;
72941;SDS011;69665;55.822;37.330;2023-07-24T12:10:26;8.25;;;4.25;;
72941;SDS011;69665;55.822;37.330;2023-07-24T12:12:57;9.60;;;4.47;;
72941;SDS011;69665;55.822;37.330;2023-07-24T12:15:23;8.55;;;4.40;;
72941;SDS011;69665;55.822;37.330;2023-07-24T12:17:48;7.57;;;3.85;;
72941;SDS011;69665;55.822;37.330;2023-07-24T12:20:14;8.27;;;4.22;;
72941;SDS011;69665;55.822;37.330;2023-07-24T12:22:39;8.10;;;3.67;;
72941;SDS011;69665;55.822;37.330;2023-07-24T12:25:05;6.55;;;4.18;;
72941;SDS011;69665;55.822;37.330;2023-07-24T12:27:32;7.63;;;3.78;;
72941;SDS011;69665;55.822;37.330;2023-07-24T12:29:58;6.78;;;3.40;;
72941;SDS011;69665;55.822;37.330;2023-07-24T12:32:24;7.43;;;3.65;;
72941;SDS011;69665;55.822;37.330;2023-07-24T12:34:50;7.32;;;3.05;;
72941;SDS011;69665;55.822;37.330;2023-07-24T12:37:16;7.13;;;3.40;;
72941;SDS011;69665;55.822;37.330;2023-07-24T12:39:44;8.60;;;3.08;;
72941;SDS011;69665;55.822;37.330;2023-07-24T12:42:10;7.22;;;3.10;;
72941;SDS011;69665;55.822;37.330;2023-07-24T12:44:36;6.55;;;3.75;;
72941;SDS011;69665;55.822;37.330;2023-07-24T12:47:02;6.97;;;3.03;;
72941;SDS011;69665;55.822;37.330;2023-07-24T12:49:27;7.88;;;3.63;;
72941;SDS011;69665;55.822;37.330;2023-07-24T12:51:53;9.75;;;3.42;;
72941;SDS011;69665;55.822;37.330;2023-07-24T12:54:18;5.95;;;3.13;;
72941;SDS011;69665;55.822;37.330;2023-07-24T12:56:45;6.18;;;3.00;;
72941;SDS011;69665;55.822;37.330;2023-07-24T12:59:11;6.82;;;3.60;;
72941;SDS011;69665;55.822;37.330;2023-07-24T13:01:36;7.35;;;3.10;;
72941;SDS011;69665;55.822;37.330;2023-07-24T13:04:02;5.95;;;3.15;;
72941;SDS011;69665;55.822;37.330;2023-07-24T13:06:27;7.75;;;3.63;;
72941;SDS011;69665;55.822;37.330;2023-07-24T13:08:53;6.57;;;2.95;;
72941;SDS011;69665;55.822;37.330;2023-07-24T13:11:18;6.78;;;3.28;;
72941;SDS011;69665;55.822;37.330;2023-07-24T13:13:44;6.78;;;3.20;;
72941;SDS011;69665;55.822;37.330;2023-07-24T13:16:09;5.93;;;3.30;;
72941;SDS011;69665;55.822;37.330;2023-07-24T13:18:35;6.95;;;3.55;;
72941;SDS011;69665;55.822;37.330;2023-07-24T13:21:01;7.78;;;3.35;;
72941;SDS011;69665;55.822;37.330;2023-07-24T13:23:26;8.00;;;3.45;;
72941;SDS011;69665;55.822;37.330;2023-07-24T13:25:52;9.25;;;3.85;;
72941;SDS011;69665;55.822;37.330;2023-07-24T13:28:17;6.32;;;3.25;;
72941;SDS011;69665;55.822;37.330;2023-07-24T13:30:43;7.47;;;3.70;;
72941;SDS011;69665;55.822;37.330;2023-07-24T13:33:09;6.13;;;3.45;;
72941;SDS011;69665;55.822;37.330;2023-07-24T13:35:34;7.45;;;3.60;;
72941;SDS011;69665;55.822;37.330;2023-07-24T13:38:00;7.13;;;3.58;;
72941;SDS011;69665;55.822;37.330;2023-07-24T13:40:26;8.98;;;3.60;;
72941;SDS011;69665;55.822;37.330;2023-07-24T13:42:51;5.65;;;3.35;;
72941;SDS011;69665;55.822;37.330;2023-07-24T13:45:17;8.93;;;4.07;;
72941;SDS011;69665;55.822;37.330;2023-07-24T13:47:42;6.95;;;3.13;;
72941;SDS011;69665;55.822;37.330;2023-07-24T13:50:08;7.32;;;3.60;;
72941;SDS011;69665;55.822;37.330;2023-07-24T13:52:34;7.50;;;3.25;;
72941;SDS011;69665;55.822;37.330;2023-07-24T13:54:59;7.00;;;3.53;;
72941;SDS011;69665;55.822;37.330;2023-07-24T13:57:26;6.22;;;3.42;;
72941;SDS011;69665;55.822;37.330;2023-07-24T13:59:51;7.68;;;3.70;;
72941;SDS011;69665;55.822;37.330;2023-07-24T14:02:16;7.60;;;3.65;;
72941;SDS011;69665;55.822;37.330;2023-07-24T14:04:45;8.65;;;3.85;;
72941;SDS011;69665;55.822;37.330;2023-07-24T14:07:11;7.30;;;4.05;;
72941;SDS011;69665;55.822;37.330;2023-07-24T14:09:38;6.80;;;4.05;;
72941;SDS011;69665;55.822;37.330;2023-07-24T14:12:04;7.22;;;3.60;;
72941;SDS011;69665;55.822;37.330;2023-07-24T14:14:29;7.80;;;4.03;;
72941;SDS011;69665;55.822;37.330;2023-07-24T14:16:55;9.00;;;3.67;;
72941;SDS011;69665;55.822;37.330;2023-07-24T14:19:21;7.35;;;3.65;;
72941;SDS011;69665;55.822;37.330;2023-07-24T14:21:49;6.55;;;3.63;;
72941;SDS011;69665;55.822;37.330;2023-07-24T14:24:15;7.68;;;3.60;;
72941;SDS011;69665;55.822;37.330;2023-07-24T14:26:40;11.70;;;3.95;;
72941;SDS011;69665;55.822;37.330;2023-07-24T14:29:06;6.85;;;3.40;;
72941;SDS011;69665;55.822;37.330;2023-07-24T14:31:31;9.38;;;3.65;;
72941;SDS011;69665;55.822;37.330;2023-07-24T14:33:57;6.53;;;3.28;;
72941;SDS011;69665;55.822;37.330;2023-07-24T14:36:22;6.93;;;3.78;;